sensor_id;sensor_type;location;lat;lon;timestamp;P1;durP1;ratioP1;P2;durP2;ratioP2
49340;SDS011;35209;51.050;13.678;2022-11-20T00:04:51;24.63;;;18.83;;
49340;SDS011;35209;51.050;13.678;2022-11-20T00:09:53;23.85;;;18.40;;
49340;SDS011;35209;51.050;13.678;2022-11-20T00:14:54;23.88;;;19.52;;
49340;SDS011;35209;51.050;13.678;2022-11-20T00:19:56;28.63;;;20.55;;
49340;SDS011;35209;51.050;13.678;2022-11-20T00:24:57;31.38;;;20.00;;
49340;SDS011;35209;51.050;13.678;2022-11-20T00:29:59;33.65;;;20.60;;
49340;SDS011;35209;51.050;13.678;2022-11-20T00:35:01;25.63;;;20.40;;
49340;SDS011;35209;51.050;13.678;2022-11-20T00:40:03;22.42;;;18.52;;
49340;SDS011;35209;51.050;13.678;2022-11-20T00:45:05;21.27;;;17.52;;
49340;SDS011;35209;51.050;13.678;2022-11-20T00:50:07;20.40;;;18.25;;
49340;SDS011;35209;51.050;13.678;2022-11-20T00:55:09;18.08;;;16.15;;
49340;SDS011;35209;51.050;13.678;2022-11-20T01:00:10;20.30;;;17.63;;
49340;SDS011;35209;51.050;13.678;2022-11-20T01:05:12;21.30;;;17.00;;
49340;SDS011;35209;51.050;13.678;2022-11-20T01:10:14;25.35;;;18.00;;
49340;SDS011;35209;51.050;13.678;2022-11-20T01:15:16;21.27;;;17.80;;
49340;SDS011;35209;51.050;13.678;2022-11-20T01:20:17;22.25;;;18.25;;
49340;SDS011;35209;51.050;13.678;2022-11-20T01:25:19;26.45;;;18.58;;
49340;SDS011;35209;51.050;13.678;2022-11-20T01:30:20;20.65;;;17.52;;
49340;SDS011;35209;51.050;13.678;2022-11-20T01:35:22;19.02;;;17.02;;
49340;SDS011;35209;51.050;13.678;2022-11-20T01:40:24;22.23;;;18.00;;
49340;SDS011;35209;51.050;13.678;2022-11-20T01:51:01;20.48;;;18.02;;
49340;SDS011;35209;51.050;13.678;2022-11-20T01:56:05;23.55;;;18.63;;
49340;SDS011;35209;51.050;13.678;2022-11-20T02:01:11;20.23;;;16.80;;
49340;SDS011;35209;51.050;13.678;2022-11-20T02:06:25;21.30;;;17.20;;
49340;SDS011;35209;51.050;13.678;2022-11-20T02:11:29;18.00;;;15.70;;
49340;SDS011;35209;51.050;13.678;2022-11-20T02:16:35;18.05;;;16.25;;
49340;SDS011;35209;51.050;13.678;2022-11-20T02:21:44;20.33;;;16.83;;
49340;SDS011;35209;51.050;13.678;2022-11-20T02:32:01;20.33;;;15.85;;
49340;SDS011;35209;51.050;13.678;2022-11-20T02:37:04;21.45;;;14.77;;
49340;SDS011;35209;51.050;13.678;2022-11-20T02:42:06;17.92;;;14.13;;
49340;SDS011;35209;51.050;13.678;2022-11-20T02:47:07;17.27;;;13.93;;
49340;SDS011;35209;51.050;13.678;2022-11-20T02:52:09;16.27;;;13.50;;
49340;SDS011;35209;51.050;13.678;2022-11-20T02:57:11;16.92;;;13.63;;
49340;SDS011;35209;51.050;13.678;2022-11-20T03:02:13;15.05;;;12.75;;
49340;SDS011;35209;51.050;13.678;2022-11-20T03:07:15;13.45;;;11.95;;
49340;SDS011;35209;51.050;13.678;2022-11-20T03:12:17;16.80;;;13.25;;
49340;SDS011;35209;51.050;13.678;2022-11-20T03:17:18;16.50;;;11.68;;
49340;SDS011;35209;51.050;13.678;2022-11-20T03:22:20;15.13;;;13.50;;
49340;SDS011;35209;51.050;13.678;2022-11-20T03:27:22;15.73;;;12.90;;
49340;SDS011;35209;51.050;13.678;2022-11-20T03:32:23;15.43;;;12.45;;
49340;SDS011;35209;51.050;13.678;2022-11-20T03:37:25;14.68;;;13.15;;
49340;SDS011;35209;51.050;13.678;2022-11-20T03:42:27;14.68;;;12.57;;
49340;SDS011;35209;51.050;13.678;2022-11-20T03:47:46;15.77;;;12.48;;
49340;SDS011;35209;51.050;13.678;2022-11-20T03:52:48;15.30;;;13.27;;
49340;SDS011;35209;51.050;13.678;2022-11-20T03:57:50;16.13;;;12.90;;
49340;SDS011;35209;51.050;13.678;2022-11-20T04:02:51;14.02;;;12.73;;
49340;SDS011;35209;51.050;13.678;2022-11-20T04:07:53;14.77;;;13.25;;
49340;SDS011;35209;51.050;13.678;2022-11-20T04:12:55;13.93;;;12.43;;
49340;SDS011;35209;51.050;13.678;2022-11-20T04:17:56;14.60;;;10.82;;
49340;SDS011;35209;51.050;13.678;2022-11-20T04:22:58;14.90;;;12.70;;
49340;SDS011;35209;51.050;13.678;2022-11-20T04:27:59;13.80;;;11.43;;
49340;SDS011;35209;51.050;13.678;2022-11-20T04:33:01;11.95;;;10.65;;
49340;SDS011;35209;51.050;13.678;2022-11-20T04:38:03;12.13;;;10.32;;
49340;SDS011;35209;51.050;13.678;2022-11-20T04:43:05;11.85;;;10.63;;
49340;SDS011;35209;51.050;13.678;2022-11-20T04:48:07;13.43;;;10.88;;
49340;SDS011;35209;51.050;13.678;2022-11-20T04:53:08;15.93;;;11.95;;
49340;SDS011;35209;51.050;13.678;2022-11-20T04:58:10;12.75;;;11.45;;
49340;SDS011;35209;51.050;13.678;2022-11-20T05:03:12;11.65;;;10.45;;
49340;SDS011;35209;51.050;13.678;2022-11-20T05:08:14;12.45;;;11.15;;
49340;SDS011;35209;51.050;13.678;2022-11-20T05:13:15;11.52;;;10.32;;
49340;SDS011;35209;51.050;13.678;2022-11-20T05:18:17;11.38;;;10.20;;
49340;SDS011;35209;51.050;13.678;2022-11-20T05:23:19;11.27;;;10.10;;
49340;SDS011;35209;51.050;13.678;2022-11-20T05:28:21;15.18;;;11.25;;
49340;SDS011;35209;51.050;13.678;2022-11-20T05:33:23;13.48;;;10.07;;
49340;SDS011;35209;51.050;13.678;2022-11-20T05:38:24;11.50;;;10.38;;
49340;SDS011;35209;51.050;13.678;2022-11-20T05:43:26;11.13;;;10.02;;
49340;SDS011;35209;51.050;13.678;2022-11-20T05:48:28;11.20;;;10.05;;
49340;SDS011;35209;51.050;13.678;2022-11-20T05:53:30;11.88;;;10.55;;
49340;SDS011;35209;51.050;13.678;2022-11-20T05:58:33;10.95;;;9.32;;
49340;SDS011;35209;51.050;13.678;2022-11-20T06:03:35;11.75;;;9.88;;
49340;SDS011;35209;51.050;13.678;2022-11-20T06:08:37;10.80;;;9.70;;
49340;SDS011;35209;51.050;13.678;2022-11-20T06:13:39;9.82;;;8.73;;
49340;SDS011;35209;51.050;13.678;2022-11-20T06:18:43;9.88;;;8.20;;
49340;SDS011;35209;51.050;13.678;2022-11-20T06:23:45;10.90;;;9.27;;
49340;SDS011;35209;51.050;13.678;2022-11-20T06:28:48;8.63;;;7.22;;
49340;SDS011;35209;51.050;13.678;2022-11-20T06:33:50;9.30;;;8.30;;
49340;SDS011;35209;51.050;13.678;2022-11-20T06:38:52;10.35;;;8.57;;
49340;SDS011;35209;51.050;13.678;2022-11-20T06:43:55;9.75;;;8.60;;
49340;SDS011;35209;51.050;13.678;2022-11-20T06:48:57;10.10;;;8.75;;
49340;SDS011;35209;51.050;13.678;2022-11-20T06:53:59;9.00;;;7.97;;
49340;SDS011;35209;51.050;13.678;2022-11-20T06:59:06;10.30;;;9.20;;
49340;SDS011;35209;51.050;13.678;2022-11-20T07:04:08;10.17;;;9.07;;
49340;SDS011;35209;51.050;13.678;2022-11-20T07:09:10;9.00;;;8.02;;
49340;SDS011;35209;51.050;13.678;2022-11-20T07:14:13;12.88;;;9.68;;
49340;SDS011;35209;51.050;13.678;2022-11-20T07:19:15;11.50;;;9.57;;
49340;SDS011;35209;51.050;13.678;2022-11-20T07:24:16;9.48;;;8.43;;
49340;SDS011;35209;51.050;13.678;2022-11-20T07:29:18;11.13;;;9.75;;
49340;SDS011;35209;51.050;13.678;2022-11-20T07:34:21;9.95;;;8.95;;
49340;SDS011;35209;51.050;13.678;2022-11-20T07:39:22;12.68;;;10.50;;
49340;SDS011;35209;51.050;13.678;2022-11-20T07:44:24;10.55;;;9.25;;
49340;SDS011;35209;51.050;13.678;2022-11-20T07:49:26;10.80;;;9.70;;
49340;SDS011;35209;51.050;13.678;2022-11-20T07:54:28;11.27;;;10.05;;
49340;SDS011;35209;51.050;13.678;2022-11-20T07:59:29;12.63;;;10.85;;
49340;SDS011;35209;51.050;13.678;2022-11-20T08:04:31;12.05;;;10.85;;
49340;SDS011;35209;51.050;13.678;2022-11-20T08:09:34;11.55;;;9.57;;
49340;SDS011;35209;51.050;13.678;2022-11-20T08:14:36;12.85;;;11.48;;
49340;SDS011;35209;51.050;13.678;2022-11-20T08:19:37;13.80;;;11.48;;
49340;SDS011;35209;51.050;13.678;2022-11-20T08:24:39;13.18;;;11.25;;
49340;SDS011;35209;51.050;13.678;2022-11-20T08:29:41;14.80;;;13.40;;
49340;SDS011;35209;51.050;13.678;2022-11-20T08:34:43;13.43;;;12.02;;
49340;SDS011;35209;51.050;13.678;2022-11-20T08:39:44;12.73;;;11.48;;
49340;SDS011;35209;51.050;13.678;2022-11-20T08:44:46;13.60;;;12.20;;
49340;SDS011;35209;51.050;13.678;2022-11-20T08:49:48;16.38;;;14.20;;
49340;SDS011;35209;51.050;13.678;2022-11-20T08:54:49;17.58;;;13.95;;
49340;SDS011;35209;51.050;13.678;2022-11-20T08:59:51;14.85;;;13.25;;
49340;SDS011;35209;51.050;13.678;2022-11-20T09:05:09;17.23;;;13.02;;
49340;SDS011;35209;51.050;13.678;2022-11-20T09:10:11;15.95;;;14.20;;
49340;SDS011;35209;51.050;13.678;2022-11-20T09:20:30;15.18;;;13.57;;
49340;SDS011;35209;51.050;13.678;2022-11-20T09:25:32;15.75;;;14.13;;
49340;SDS011;35209;51.050;13.678;2022-11-20T09:30:34;14.68;;;13.18;;
49340;SDS011;35209;51.050;13.678;2022-11-20T09:35:36;16.00;;;14.57;;
49340;SDS011;35209;51.050;13.678;2022-11-20T09:40:38;17.15;;;15.45;;
49340;SDS011;35209;51.050;13.678;2022-11-20T09:56:55;27.05;;;20.02;;
49340;SDS011;35209;51.050;13.678;2022-11-20T10:02:01;33.95;;;22.40;;
49340;SDS011;35209;51.050;13.678;2022-11-20T10:12:56;21.75;;;19.55;;
49340;SDS011;35209;51.050;13.678;2022-11-20T10:29:16;19.83;;;17.93;;
49340;SDS011;35209;51.050;13.678;2022-11-20T10:34:23;17.75;;;15.93;;
49340;SDS011;35209;51.050;13.678;2022-11-20T10:40:04;22.00;;;18.23;;
49340;SDS011;35209;51.050;13.678;2022-11-20T10:45:36;16.35;;;14.75;;
49340;SDS011;35209;51.050;13.678;2022-11-20T10:51:35;21.80;;;17.00;;
49340;SDS011;35209;51.050;13.678;2022-11-20T11:01:53;16.85;;;15.25;;
49340;SDS011;35209;51.050;13.678;2022-11-20T11:06:58;13.60;;;12.30;;
49340;SDS011;35209;51.050;13.678;2022-11-20T11:12:06;9.65;;;8.75;;
49340;SDS011;35209;51.050;13.678;2022-11-20T11:17:31;9.50;;;8.60;;
49340;SDS011;35209;51.050;13.678;2022-11-20T11:22:34;10.23;;;9.32;;
49340;SDS011;35209;51.050;13.678;2022-11-20T11:27:47;9.52;;;7.25;;
49340;SDS011;35209;51.050;13.678;2022-11-20T11:32:49;10.75;;;9.85;;
49340;SDS011;35209;51.050;13.678;2022-11-20T11:37:52;10.55;;;9.55;;
49340;SDS011;35209;51.050;13.678;2022-11-20T11:43:26;11.95;;;10.85;;
49340;SDS011;35209;51.050;13.678;2022-11-20T11:49:10;13.05;;;11.88;;
49340;SDS011;35209;51.050;13.678;2022-11-20T11:54:19;10.90;;;9.90;;
49340;SDS011;35209;51.050;13.678;2022-11-20T12:05:21;10.48;;;9.48;;
49340;SDS011;35209;51.050;13.678;2022-11-20T12:15:46;13.15;;;12.00;;
49340;SDS011;35209;51.050;13.678;2022-11-20T13:04:52;12.48;;;11.27;;
49340;SDS011;35209;51.050;13.678;2022-11-20T13:10:15;10.63;;;9.63;;
49340;SDS011;35209;51.050;13.678;2022-11-20T13:15:49;10.82;;;9.88;;
49340;SDS011;35209;51.050;13.678;2022-11-20T13:20:57;10.93;;;9.93;;
49340;SDS011;35209;51.050;13.678;2022-11-20T13:26:03;9.73;;;8.73;;
49340;SDS011;35209;51.050;13.678;2022-11-20T13:36:27;10.40;;;9.50;;
49340;SDS011;35209;51.050;13.678;2022-11-20T13:41:32;10.50;;;9.60;;
49340;SDS011;35209;51.050;13.678;2022-11-20T13:46:43;9.50;;;8.63;;
49340;SDS011;35209;51.050;13.678;2022-11-20T13:51:48;10.77;;;9.88;;
49340;SDS011;35209;51.050;13.678;2022-11-20T13:57:05;10.27;;;9.27;;
49340;SDS011;35209;51.050;13.678;2022-11-20T14:02:13;9.48;;;8.60;;
49340;SDS011;35209;51.050;13.678;2022-11-20T14:07:18;10.73;;;9.73;;
49340;SDS011;35209;51.050;13.678;2022-11-20T14:12:28;17.77;;;15.77;;
49340;SDS011;35209;51.050;13.678;2022-11-20T14:17:33;17.90;;;15.63;;
49340;SDS011;35209;51.050;13.678;2022-11-20T14:22:36;13.25;;;12.15;;
49340;SDS011;35209;51.050;13.678;2022-11-20T14:27:38;11.07;;;10.07;;
49340;SDS011;35209;51.050;13.678;2022-11-20T14:32:43;14.88;;;13.57;;
49340;SDS011;35209;51.050;13.678;2022-11-20T14:37:46;12.27;;;11.18;;
49340;SDS011;35209;51.050;13.678;2022-11-20T14:42:48;12.00;;;10.88;;
49340;SDS011;35209;51.050;13.678;2022-11-20T14:47:54;11.00;;;9.93;;
49340;SDS011;35209;51.050;13.678;2022-11-20T14:52:58;12.45;;;11.27;;
49340;SDS011;35209;51.050;13.678;2022-11-20T14:58:02;12.25;;;11.25;;
49340;SDS011;35209;51.050;13.678;2022-11-20T15:03:13;11.57;;;10.57;;
49340;SDS011;35209;51.050;13.678;2022-11-20T15:08:17;11.82;;;10.73;;
49340;SDS011;35209;51.050;13.678;2022-11-20T15:18:39;13.50;;;12.32;;
49340;SDS011;35209;51.050;13.678;2022-11-20T15:23:46;12.20;;;11.10;;
49340;SDS011;35209;51.050;13.678;2022-11-20T15:28:48;13.68;;;12.43;;
49340;SDS011;35209;51.050;13.678;2022-11-20T15:33:51;15.02;;;13.65;;
49340;SDS011;35209;51.050;13.678;2022-11-20T15:38:53;13.70;;;12.40;;
49340;SDS011;35209;51.050;13.678;2022-11-20T15:43:55;13.82;;;12.57;;
49340;SDS011;35209;51.050;13.678;2022-11-20T15:48:57;14.77;;;13.38;;
49340;SDS011;35209;51.050;13.678;2022-11-20T15:54:03;15.18;;;13.77;;
49340;SDS011;35209;51.050;13.678;2022-11-20T15:59:14;15.60;;;14.20;;
49340;SDS011;35209;51.050;13.678;2022-11-20T16:04:16;16.58;;;15.13;;
49340;SDS011;35209;51.050;13.678;2022-11-20T16:09:19;19.27;;;16.35;;
49340;SDS011;35209;51.050;13.678;2022-11-20T16:14:21;18.30;;;16.50;;
49340;SDS011;35209;51.050;13.678;2022-11-20T16:19:41;17.80;;;16.02;;
49340;SDS011;35209;51.050;13.678;2022-11-20T16:24:43;17.00;;;15.32;;
49340;SDS011;35209;51.050;13.678;2022-11-20T16:29:45;17.42;;;15.73;;
49340;SDS011;35209;51.050;13.678;2022-11-20T16:34:47;18.13;;;16.25;;
49340;SDS011;35209;51.050;13.678;2022-11-20T16:39:49;17.23;;;15.63;;
49340;SDS011;35209;51.050;13.678;2022-11-20T16:44:51;21.55;;;19.23;;
49340;SDS011;35209;51.050;13.678;2022-11-20T16:49:52;27.52;;;21.73;;
49340;SDS011;35209;51.050;13.678;2022-11-20T16:54:54;19.83;;;17.90;;
49340;SDS011;35209;51.050;13.678;2022-11-20T16:59:56;21.95;;;16.63;;
49340;SDS011;35209;51.050;13.678;2022-11-20T17:05:02;17.80;;;16.07;;
49340;SDS011;35209;51.050;13.678;2022-11-20T17:10:05;20.15;;;18.05;;
49340;SDS011;35209;51.050;13.678;2022-11-20T17:15:07;35.05;;;23.90;;
49340;SDS011;35209;51.050;13.678;2022-11-20T17:20:09;28.90;;;22.58;;
49340;SDS011;35209;51.050;13.678;2022-11-20T17:25:13;27.52;;;21.67;;
49340;SDS011;35209;51.050;13.678;2022-11-20T17:30:15;26.17;;;21.58;;
49340;SDS011;35209;51.050;13.678;2022-11-20T17:35:16;20.45;;;18.20;;
49340;SDS011;35209;51.050;13.678;2022-11-20T17:40:18;25.48;;;18.92;;
49340;SDS011;35209;51.050;13.678;2022-11-20T17:45:27;17.88;;;15.98;;
49340;SDS011;35209;51.050;13.678;2022-11-20T17:50:28;16.77;;;15.00;;
49340;SDS011;35209;51.050;13.678;2022-11-20T17:55:30;16.23;;;14.60;;
49340;SDS011;35209;51.050;13.678;2022-11-20T18:01:02;16.13;;;14.52;;
49340;SDS011;35209;51.050;13.678;2022-11-20T18:06:18;15.38;;;13.68;;
49340;SDS011;35209;51.050;13.678;2022-11-20T18:11:24;13.02;;;11.88;;
49340;SDS011;35209;51.050;13.678;2022-11-20T18:16:31;14.68;;;13.27;;
49340;SDS011;35209;51.050;13.678;2022-11-20T18:21:36;14.20;;;12.55;;
49340;SDS011;35209;51.050;13.678;2022-11-20T18:26:38;16.00;;;14.35;;
49340;SDS011;35209;51.050;13.678;2022-11-20T18:31:44;16.03;;;14.40;;
49340;SDS011;35209;51.050;13.678;2022-11-20T18:36:46;16.55;;;14.93;;
49340;SDS011;35209;51.050;13.678;2022-11-20T18:41:48;17.45;;;15.85;;
49340;SDS011;35209;51.050;13.678;2022-11-20T18:47:09;17.13;;;15.32;;
49340;SDS011;35209;51.050;13.678;2022-11-20T18:52:15;17.57;;;15.77;;
49340;SDS011;35209;51.050;13.678;2022-11-20T18:57:18;17.27;;;15.32;;
49340;SDS011;35209;51.050;13.678;2022-11-20T19:02:22;17.52;;;15.70;;
49340;SDS011;35209;51.050;13.678;2022-11-20T19:07:24;21.15;;;17.55;;
49340;SDS011;35209;51.050;13.678;2022-11-20T19:12:26;24.15;;;18.60;;
49340;SDS011;35209;51.050;13.678;2022-11-20T19:17:27;22.65;;;18.63;;
49340;SDS011;35209;51.050;13.678;2022-11-20T19:22:29;24.02;;;19.83;;
49340;SDS011;35209;51.050;13.678;2022-11-20T19:27:31;23.48;;;19.45;;
49340;SDS011;35209;51.050;13.678;2022-11-20T19:32:34;23.38;;;20.65;;
49340;SDS011;35209;51.050;13.678;2022-11-20T19:37:36;22.17;;;19.40;;
49340;SDS011;35209;51.050;13.678;2022-11-20T19:42:41;29.27;;;20.50;;
49340;SDS011;35209;51.050;13.678;2022-11-20T19:47:43;23.42;;;19.33;;
49340;SDS011;35209;51.050;13.678;2022-11-20T19:53:06;26.38;;;18.85;;
49340;SDS011;35209;51.050;13.678;2022-11-20T19:58:08;24.65;;;18.73;;
49340;SDS011;35209;51.050;13.678;2022-11-20T20:03:09;21.40;;;18.90;;
49340;SDS011;35209;51.050;13.678;2022-11-20T20:08:11;27.75;;;19.60;;
49340;SDS011;35209;51.050;13.678;2022-11-20T20:13:17;24.00;;;18.92;;
49340;SDS011;35209;51.050;13.678;2022-11-20T20:18:19;28.88;;;20.80;;
49340;SDS011;35209;51.050;13.678;2022-11-20T20:23:21;26.27;;;20.60;;
49340;SDS011;35209;51.050;13.678;2022-11-20T20:28:23;28.35;;;19.55;;
49340;SDS011;35209;51.050;13.678;2022-11-20T20:33:24;27.35;;;20.27;;
49340;SDS011;35209;51.050;13.678;2022-11-20T20:38:26;32.15;;;23.00;;
49340;SDS011;35209;51.050;13.678;2022-11-20T20:43:28;31.02;;;23.80;;
49340;SDS011;35209;51.050;13.678;2022-11-20T20:48:30;40.47;;;22.70;;
49340;SDS011;35209;51.050;13.678;2022-11-20T20:53:32;34.72;;;22.45;;
49340;SDS011;35209;51.050;13.678;2022-11-20T20:58:34;30.75;;;22.73;;
49340;SDS011;35209;51.050;13.678;2022-11-20T21:03:36;28.85;;;22.45;;
49340;SDS011;35209;51.050;13.678;2022-11-20T21:08:39;26.33;;;20.67;;
49340;SDS011;35209;51.050;13.678;2022-11-20T21:13:44;28.75;;;21.85;;
49340;SDS011;35209;51.050;13.678;2022-11-20T21:18:47;30.90;;;21.55;;
49340;SDS011;35209;51.050;13.678;2022-11-20T21:23:49;28.25;;;22.58;;
49340;SDS011;35209;51.050;13.678;2022-11-20T21:28:52;26.33;;;21.42;;
49340;SDS011;35209;51.050;13.678;2022-11-20T21:33:54;27.90;;;21.73;;
49340;SDS011;35209;51.050;13.678;2022-11-20T21:38:57;26.95;;;21.25;;
49340;SDS011;35209;51.050;13.678;2022-11-20T21:43:59;30.63;;;22.38;;
49340;SDS011;35209;51.050;13.678;2022-11-20T21:49:24;26.35;;;20.85;;
49340;SDS011;35209;51.050;13.678;2022-11-20T21:54:26;22.02;;;19.85;;
49340;SDS011;35209;51.050;13.678;2022-11-20T21:59:28;31.63;;;22.10;;
49340;SDS011;35209;51.050;13.678;2022-11-20T22:04:29;26.17;;;19.67;;
49340;SDS011;35209;51.050;13.678;2022-11-20T22:09:31;27.40;;;20.55;;
49340;SDS011;35209;51.050;13.678;2022-11-20T22:14:32;25.13;;;18.95;;
49340;SDS011;35209;51.050;13.678;2022-11-20T22:19:34;21.88;;;19.52;;
49340;SDS011;35209;51.050;13.678;2022-11-20T22:24:36;23.10;;;19.30;;
49340;SDS011;35209;51.050;13.678;2022-11-20T22:29:37;19.65;;;17.67;;
49340;SDS011;35209;51.050;13.678;2022-11-20T22:34:39;19.67;;;17.73;;
49340;SDS011;35209;51.050;13.678;2022-11-20T22:39:40;19.83;;;17.83;;
49340;SDS011;35209;51.050;13.678;2022-11-20T22:44:42;17.85;;;16.15;;
49340;SDS011;35209;51.050;13.678;2022-11-20T22:49:44;19.88;;;17.88;;
49340;SDS011;35209;51.050;13.678;2022-11-20T22:54:45;22.30;;;18.25;;
49340;SDS011;35209;51.050;13.678;2022-11-20T22:59:47;19.38;;;17.13;;
49340;SDS011;35209;51.050;13.678;2022-11-20T23:04:49;22.55;;;18.92;;
49340;SDS011;35209;51.050;13.678;2022-11-20T23:09:50;21.98;;;18.95;;
49340;SDS011;35209;51.050;13.678;2022-11-20T23:14:52;22.27;;;19.88;;
49340;SDS011;35209;51.050;13.678;2022-11-20T23:19:53;32.00;;;22.98;;
49340;SDS011;35209;51.050;13.678;2022-11-20T23:24:55;37.53;;;24.33;;
49340;SDS011;35209;51.050;13.678;2022-11-20T23:29:57;39.65;;;24.38;;
49340;SDS011;35209;51.050;13.678;2022-11-20T23:34:59;43.80;;;25.10;;
49340;SDS011;35209;51.050;13.678;2022-11-20T23:40:01;39.58;;;25.88;;
49340;SDS011;35209;51.050;13.678;2022-11-20T23:45:03;44.45;;;26.30;;
49340;SDS011;35209;51.050;13.678;2022-11-20T23:50:05;45.10;;;26.80;;
49340;SDS011;35209;51.050;13.678;2022-11-20T23:55:07;51.50;;;27.55;;
